Airfield :
LOGIN :

Register | Disclaimer

   EN    FR    IT 

 










Legend :    VFR   Marginal VFR   IFR   Intensive IFR   Very Intensive IFR
Visi :
Ceiling :
>= 8 km
>= 3000ft
5 to 8 km
1000 to 3000 ft
1500m to 5 km
500 to 1000 ft
800 to 1500m
200 to 500 ft
< 800m
< 200 ft
Symbols :   Thunderstorms  Fog  Heavy snow  Heavy precipitations  Wind > 20 kt
SIGMETs :     Misc.  Thunderstorms  Icing  Turbulence  Mountain Waves  Volcanic Ashes






- Airport Elevation : 1106 ft


LFSO - Nancy / Ochey

CURRENT METAR :
  • 281100Z AUTO 20005KT 9999 SCT016 BKN022 OVC036 08/06 Q1012 TEMPO 4000 -RADZ OVC005

EXPIRED METARs :
  • 281030Z AUTO 19005KT 9999 BKN019 OVC042 09/06 Q1012 TEMPO 4000 -RADZ OVC005
  • 281000Z AUTO 16005KT 9999 SCT025 BKN040 OVC046 08/06 Q1012 TEMPO 4000 -RADZ OVC005
  • 280930Z AUTO 17007KT 9999 OVC047 08/06 Q1012 TEMPO 4000 -RADZ OVC005
  • 280900Z AUTO 14007KT CAVOK 08/06 Q1012 BECMG BKN007 OVC010
  • 280830Z AUTO 16007KT 9999 -RA NSC 07/05 Q1012 BECMG BKN007 OVC010

TAF TAF LFSO
Valid from the 28 at 09:00 until the 29 at 09:00 UTC


280800Z 2809/2909 18007KT 9999 BKN018 OVC030
BECMG 2809/2811 -RA BKN007 OVC010
TEMPO 2811/2820 4000 -RADZ OVC005
BECMG 2823/2901 2000 -DZRA BR BKN003 OVC005
PROB40
TEMPO 2905/2909 0700 FG OVC001



MET'MAP, your aeronautical weather chart ! - Copyright ORBIFLY December 2007 - Disclaimer

ORBIFLY MET'MAP TEAM :

Programming & Development : Alexandra Zaïnal
Original concept : Baudouin d'Aumeries
Technical & hardware support : Manuel Goepfert
Assistance : Marc-Olivier Méhu




SOURCES & CREDITS :

   NOAA